createdAt,value
2018-04-24T00:00:10.373Z,13
2018-04-24T00:01:09.595Z,12.9
2018-04-24T00:02:08.542Z,12.9
2018-04-24T00:03:07.962Z,12.9
2018-04-24T00:04:07.170Z,12.9
2018-04-24T00:05:06.618Z,12.9
2018-04-24T00:06:05.217Z,12.9
2018-04-24T00:07:04.822Z,12.8
2018-04-24T00:08:04.147Z,12.8
2018-04-24T00:09:03.488Z,12.8
2018-04-24T00:10:02.699Z,12.8
2018-04-24T00:11:01.918Z,12.8
2018-04-24T00:12:01.034Z,12.8
2018-04-24T00:13:00.238Z,12.8
2018-04-24T00:13:59.567Z,12.8
2018-04-24T00:14:58.892Z,12.8
2018-04-24T00:15:57.595Z,12.8
2018-04-24T00:16:56.803Z,12.8
2018-04-24T00:17:56.024Z,12.8
2018-04-24T00:18:55.623Z,12.8
2018-04-24T00:19:54.936Z,12.7
2018-04-24T00:20:53.646Z,12.7
2018-04-24T00:21:53.256Z,12.7
2018-04-24T00:22:52.364Z,12.7
2018-04-24T00:24:50.677Z,12.7
2018-04-24T00:25:49.884Z,12.7
2018-04-24T00:26:49.382Z,12.7
2018-04-24T00:27:48.599Z,12.7
2018-04-24T00:28:47.829Z,12.7
2018-04-24T00:29:47.151Z,12.7
2018-04-24T00:30:46.363Z,12.7
2018-04-24T00:31:45.175Z,12.6
2018-04-24T00:32:44.527Z,12.6
2018-04-24T00:33:15.044Z,12.6
2018-04-24T00:33:45.572Z,12.6
2018-04-24T00:34:16.156Z,12.6
2018-04-24T00:34:46.616Z,12.6
2018-04-24T00:35:17.139Z,12.6
2018-04-24T00:36:41.628Z,12.6
2018-04-24T00:37:40.547Z,12.5
2018-04-24T00:38:40.050Z,12.5
2018-04-24T00:39:39.263Z,12.5
2018-04-24T00:40:38.601Z,12.5
2018-04-24T00:41:37.416Z,12.5
2018-04-24T00:42:36.840Z,12.4
2018-04-24T00:43:36.170Z,12.4
2018-04-24T00:44:06.811Z,12.4
2018-04-24T00:44:36.828Z,12.4
2018-04-24T00:45:07.350Z,12.4
2018-04-24T00:45:37.867Z,12.4
2018-04-24T00:46:08.512Z,12.4
2018-04-24T00:48:32.073Z,12.3
2018-04-24T00:49:31.289Z,12.3
2018-04-24T00:50:30.502Z,12.2
2018-04-24T00:51:29.829Z,12.2
2018-04-24T00:52:29.223Z,12.2
2018-04-24T00:53:27.823Z,12.1
2018-04-24T00:54:27.276Z,12.1
2018-04-24T00:55:26.881Z,12.1
2018-04-24T00:56:25.794Z,12.1
2018-04-24T00:57:24.992Z,12.1
2018-04-24T00:58:24.203Z,12
2018-04-24T00:59:23.526Z,12
2018-04-24T01:00:22.640Z,12
2018-04-24T01:01:22.057Z,12
2018-04-24T01:02:21.366Z,12
2018-04-24T01:03:19.971Z,11.9
2018-04-24T01:04:19.689Z,11.9
2018-04-24T01:05:19.011Z,11.9
2018-04-24T01:06:17.820Z,11.9
2018-04-24T01:07:17.032Z,11.9
2018-04-24T01:08:16.523Z,11.8
2018-04-24T01:09:15.955Z,11.8
2018-04-24T01:10:15.054Z,11.8
2018-04-24T01:11:14.370Z,11.7
2018-04-24T01:12:13.196Z,11.7
2018-04-24T01:13:12.403Z,11.7
2018-04-24T01:14:11.827Z,11.7
2018-04-24T01:14:41.839Z,11.7
2018-04-24T01:15:12.479Z,11.6
2018-04-24T01:15:42.783Z,11.6
2018-04-24T01:16:13.527Z,11.6
2018-04-24T01:17:09.342Z,11.6
2018-04-24T01:18:08.741Z,11.6
2018-04-24T01:19:07.952Z,11.5
2018-04-24T01:20:06.762Z,11.5
2018-04-24T01:21:06.105Z,11.5
2018-04-24T01:22:05.115Z,11.5
2018-04-24T01:23:04.832Z,11.5
2018-04-24T01:24:03.939Z,11.5
2018-04-24T01:25:03.045Z,11.5
2018-04-24T01:25:33.449Z,11.5
2018-04-24T01:26:03.977Z,11.5
2018-04-24T01:27:01.475Z,11.5
2018-04-24T01:28:00.688Z,11.5
2018-04-24T01:28:59.567Z,11.4
2018-04-24T01:29:58.895Z,11.4
2018-04-24T01:30:58.217Z,11.4
2018-04-24T01:31:57.529Z,11.4
2018-04-24T01:32:56.939Z,11.4
2018-04-24T01:33:56.039Z,11.4
2018-04-24T01:35:54.046Z,11.5
2018-04-24T01:36:53.373Z,11.4
2018-04-24T01:37:52.704Z,11.4
2018-04-24T01:38:52.152Z,11.5
2018-04-24T01:39:50.859Z,11.5
2018-04-24T01:49:30.816Z,11.4
2018-04-24T01:49:32.433Z,11.4
2018-04-24T01:50:02.959Z,11.3
2018-04-24T01:50:42.541Z,11.4
2018-04-24T01:51:41.461Z,11.4
2018-04-24T01:52:40.683Z,11.4
2018-04-24T01:53:40.107Z,11.4
2018-04-24T01:54:39.311Z,11.4
2018-04-24T01:55:38.614Z,11.4
2018-04-24T01:56:37.530Z,11.4
2018-04-24T01:57:36.755Z,11.4
2018-04-24T01:58:36.069Z,11.4
2018-04-24T01:59:35.003Z,11.4
2018-04-24T02:00:34.505Z,11.3
2018-04-24T02:01:33.337Z,11.3
2018-04-24T02:02:32.545Z,11.3
2018-04-24T02:03:31.876Z,11.3
2018-04-24T02:04:31.200Z,11.3
2018-04-24T02:05:30.623Z,11.3
2018-04-24T02:06:29.332Z,11.3
2018-04-24T02:07:28.761Z,11.3
2018-04-24T02:08:27.747Z,11.2
2018-04-24T02:09:26.969Z,11.2
2018-04-24T02:09:57.599Z,11.2
2018-04-24T02:11:25.639Z,11.3
2018-04-24T02:11:56.161Z,11.3
2018-04-24T02:13:23.946Z,11.3
2018-04-24T02:14:23.271Z,11.3
2018-04-24T02:15:22.205Z,11.3
2018-04-24T02:16:21.420Z,11.3
2018-04-24T02:19:19.119Z,11.4
2018-04-24T02:19:49.528Z,11.4
2018-04-24T02:24:31.516Z,11.4
2018-04-24T02:24:33.446Z,11.4
2018-04-24T02:25:03.817Z,11.4
2018-04-24T02:26:13.656Z,11.3
2018-04-24T02:27:12.365Z,11.3
2018-04-24T02:28:12.091Z,11.3
2018-04-24T02:29:11.323Z,11.3
2018-04-24T02:30:10.245Z,11.3
2018-04-24T02:32:08.852Z,11.3
2018-04-24T02:33:07.663Z,11.2
2018-04-24T02:34:06.990Z,11.2
2018-04-24T02:35:06.305Z,11.2
2018-04-24T02:36:05.643Z,11.2
2018-04-24T02:37:04.855Z,11.2
2018-04-24T02:39:03.076Z,11.2
2018-04-24T02:40:02.287Z,11.2
2018-04-24T02:41:01.618Z,11.2
2018-04-24T02:42:00.334Z,11.2
2018-04-24T02:43:58.940Z,11.2
2018-04-24T02:44:58.153Z,11.2
2018-04-24T02:45:57.478Z,11.2
2018-04-24T02:46:56.716Z,11.2
2018-04-24T02:47:55.731Z,11.2
2018-04-24T02:48:54.837Z,11.2
2018-04-24T02:49:25.451Z,11.2
2018-04-24T02:49:55.983Z,11.1
2018-04-24T02:50:26.406Z,11.1
2018-04-24T02:50:56.932Z,11.1
2018-04-24T02:51:27.570Z,11.1
2018-04-24T02:51:58.251Z,11.1
2018-04-24T02:52:28.892Z,11.1
2018-04-24T02:53:50.752Z,11.1
2018-04-24T02:54:50.262Z,11.1
2018-04-24T02:55:49.251Z,11
2018-04-24T02:56:48.571Z,11
2018-04-24T02:57:47.895Z,11
2018-04-24T02:58:46.498Z,11
2018-04-24T02:59:46.002Z,11
2018-04-24T03:00:16.661Z,11
2018-04-24T03:00:46.901Z,11
2018-04-24T03:01:17.155Z,11
2018-04-24T03:01:47.809Z,11
2018-04-24T03:02:18.455Z,11
2018-04-24T03:02:49.101Z,11
2018-04-24T03:03:19.757Z,11
2018-04-24T03:04:42.026Z,10.9
2018-04-24T03:05:41.229Z,10.9
2018-04-24T03:06:40.434Z,10.8
2018-04-24T03:07:39.647Z,10.8
2018-04-24T03:08:38.987Z,10.8
2018-04-24T03:09:38.094Z,10.8
2018-04-24T03:10:37.323Z,10.7
2018-04-24T03:11:36.690Z,10.7
2018-04-24T03:12:35.441Z,10.7
2018-04-24T03:13:34.765Z,10.7
2018-04-24T03:14:34.094Z,10.7
2018-04-24T03:15:32.909Z,10.7
2018-04-24T03:16:32.330Z,10.7
2018-04-24T03:17:31.545Z,10.7
2018-04-24T03:18:30.357Z,10.7
2018-04-24T03:19:29.667Z,10.7
2018-04-24T03:20:28.983Z,10.7
2018-04-24T03:21:27.881Z,10.7
2018-04-24T03:22:27.223Z,10.6
2018-04-24T03:23:26.430Z,10.6
2018-04-24T03:24:25.763Z,10.6
2018-04-24T03:25:25.261Z,10.6
2018-04-24T03:26:24.073Z,10.6
2018-04-24T03:27:23.280Z,10.6
2018-04-24T03:28:22.593Z,10.6
2018-04-24T03:29:21.905Z,10.6
2018-04-24T03:30:20.824Z,10.5
2018-04-24T03:31:20.260Z,10.5
2018-04-24T03:32:19.469Z,10.5
2018-04-24T03:32:49.690Z,10.5
2018-04-24T03:33:20.235Z,10.5
2018-04-24T03:34:17.540Z,10.5
2018-04-24T03:35:16.646Z,10.5
2018-04-24T03:36:15.874Z,10.5
2018-04-24T03:38:14.074Z,10.5
2018-04-24T03:39:13.473Z,10.5
2018-04-24T03:40:12.786Z,10.4
2018-04-24T03:41:11.604Z,10.4
2018-04-24T03:42:10.924Z,10.4
2018-04-24T03:43:10.351Z,10.4
2018-04-24T03:44:09.563Z,10.4
2018-04-24T03:45:08.769Z,10.4
2018-04-24T03:46:07.981Z,10.4
2018-04-24T03:47:06.915Z,10.4
2018-04-24T03:49:05.514Z,10.3
2018-04-24T03:50:04.321Z,10.3
2018-04-24T03:51:03.423Z,10.3
2018-04-24T03:52:02.656Z,10.3
2018-04-24T03:53:02.094Z,10.3
2018-04-24T03:54:01.319Z,10.3
2018-04-24T03:55:00.415Z,10.3
2018-04-24T03:55:59.542Z,10.3
2018-04-24T03:56:58.760Z,10.3
2018-04-24T03:57:58.193Z,10.2
2018-04-24T03:58:57.004Z,10.2
2018-04-24T03:59:56.225Z,10.2
2018-04-24T04:00:55.237Z,10.2
2018-04-24T04:01:54.952Z,10.2
2018-04-24T04:02:53.667Z,10.2
2018-04-24T04:03:52.978Z,10.2
2018-04-24T04:04:52.397Z,10.2
2018-04-24T04:05:51.211Z,10.1
2018-04-24T04:06:50.530Z,10.1
2018-04-24T04:07:49.634Z,10.1
2018-04-24T04:08:48.624Z,10.1
2018-04-24T04:09:47.833Z,10.1
2018-04-24T04:10:47.265Z,10.1
2018-04-24T04:11:46.518Z,10.1
2018-04-24T04:12:45.442Z,10.1
2018-04-24T04:13:44.767Z,10.1
2018-04-24T04:14:43.981Z,10
2018-04-24T04:15:43.296Z,10
2018-04-24T04:16:42.413Z,10
2018-04-24T04:17:41.538Z,10
2018-04-24T04:18:40.463Z,10
2018-04-24T04:19:39.783Z,10.1
2018-04-24T04:20:39.214Z,10.1
2018-04-24T04:21:38.312Z,10.1
2018-04-24T04:22:37.200Z,10
2018-04-24T04:23:36.622Z,10
2018-04-24T04:24:35.729Z,10
2018-04-24T04:25:34.938Z,10
2018-04-24T04:26:33.857Z,10
2018-04-24T04:27:03.978Z,10
2018-04-24T04:27:34.511Z,10
2018-04-24T04:28:32.427Z,10
2018-04-24T04:29:31.851Z,10
2018-04-24T04:30:30.670Z,10
2018-04-24T04:31:29.885Z,10
2018-04-24T04:33:28.093Z,10
2018-04-24T04:34:27.528Z,10
2018-04-24T04:35:26.735Z,10
2018-04-24T04:36:25.661Z,10
2018-04-24T04:37:24.870Z,10
2018-04-24T04:38:24.084Z,10
2018-04-24T04:39:23.520Z,10
2018-04-24T04:40:22.335Z,10
2018-04-24T04:42:21.041Z,10
2018-04-24T04:43:20.245Z,10
2018-04-24T04:44:18.955Z,10
2018-04-24T04:45:18.385Z,10
2018-04-24T04:46:17.321Z,10.1
2018-04-24T04:47:16.433Z,10.1
2018-04-24T04:48:15.652Z,10.1
2018-04-24T04:49:15.282Z,10.1
2018-04-24T04:50:14.387Z,10.1
2018-04-24T04:51:13.308Z,10.2
2018-04-24T04:52:12.620Z,10.2
2018-04-24T04:53:11.944Z,10.2
2018-04-24T04:54:10.866Z,10.2
2018-04-24T04:55:09.976Z,10.3
2018-04-24T04:56:09.376Z,10.3
2018-04-24T04:57:08.633Z,10.3
2018-04-24T04:59:06.964Z,10.4
2018-04-24T05:00:05.677Z,10.4
2018-04-24T05:01:04.888Z,10.4
2018-04-24T05:02:03.990Z,10.4
2018-04-24T05:03:03.411Z,10.4
2018-04-24T05:04:02.516Z,10.4
2018-04-24T05:05:01.737Z,10.4
2018-04-24T05:06:00.840Z,10.5
2018-04-24T05:07:00.045Z,10.5
2018-04-24T05:07:59.471Z,10.5
2018-04-24T05:08:29.699Z,10.5
2018-04-24T05:09:00.344Z,10.5
2018-04-24T05:09:30.865Z,10.5
2018-04-24T05:10:01.391Z,10.5
2018-04-24T05:10:56.869Z,10.6
2018-04-24T05:11:55.941Z,10.6
2018-04-24T05:12:55.278Z,10.7
2018-04-24T05:13:54.499Z,10.8
2018-04-24T05:14:53.320Z,10.8
2018-04-24T05:15:52.752Z,10.8
2018-04-24T05:16:52.067Z,10.9
2018-04-24T05:17:50.674Z,10.9
2018-04-24T05:18:50.383Z,11
2018-04-24T05:19:20.903Z,11
2018-04-24T05:20:48.079Z,11
2018-04-24T05:22:46.677Z,11.1
2018-04-24T05:23:45.990Z,11.1
2018-04-24T05:24:45.194Z,11.1
2018-04-24T05:25:44.518Z,11.2
2018-04-24T05:26:43.230Z,11.2
2018-04-24T05:27:42.445Z,11.2
2018-04-24T05:28:42.163Z,11.3
2018-04-24T05:29:40.877Z,11.3
2018-04-24T05:30:39.974Z,11.3
2018-04-24T05:31:39.180Z,11.4
2018-04-24T05:32:38.494Z,11.4
2018-04-24T05:33:37.920Z,11.4
2018-04-24T05:34:37.240Z,11.4
2018-04-24T05:35:36.162Z,11.5
2018-04-24T05:36:35.481Z,11.5
2018-04-24T05:37:34.400Z,11.5
2018-04-24T05:38:33.826Z,11.5
2018-04-24T05:39:32.635Z,11.5
2018-04-24T05:40:31.967Z,11.5
2018-04-24T05:41:31.394Z,11.5
2018-04-24T05:42:30.314Z,11.4
2018-04-24T05:43:29.524Z,11.5
2018-04-24T05:44:28.844Z,11.5
2018-04-24T05:46:26.957Z,11.5
2018-04-24T05:47:26.272Z,11.5
2018-04-24T05:48:25.594Z,11.6
2018-04-24T05:49:24.522Z,11.6
2018-04-24T05:50:23.917Z,11.6
2018-04-24T05:51:23.123Z,11.6
2018-04-24T05:52:22.775Z,11.6
2018-04-24T05:53:21.453Z,11.7
2018-04-24T05:54:20.396Z,11.7
2018-04-24T05:55:19.712Z,11.7
2018-04-24T05:56:18.918Z,11.8
2018-04-24T05:56:49.552Z,11.8
2018-04-24T05:57:19.866Z,11.8
2018-04-24T05:58:17.671Z,11.8
2018-04-24T06:00:15.775Z,11.9
2018-04-24T06:01:14.986Z,11.9
2018-04-24T06:02:14.309Z,11.9
2018-04-24T06:03:13.015Z,11.9
2018-04-24T06:04:12.322Z,12
2018-04-24T06:05:11.661Z,12
2018-04-24T06:06:10.975Z,12
2018-04-24T06:08:09.171Z,12.1
2018-04-24T06:09:08.383Z,12.1
2018-04-24T06:10:07.963Z,12.1
2018-04-24T06:11:06.780Z,12.2
2018-04-24T06:12:06.103Z,12.2
2018-04-24T06:13:05.430Z,12.2
2018-04-24T06:14:04.249Z,12.2
2018-04-24T06:15:03.437Z,12.2
2018-04-24T06:17:02.022Z,12.2
2018-04-24T06:18:01.140Z,12.2
2018-04-24T06:19:00.344Z,12.2
2018-04-24T06:19:59.916Z,12.3
2018-04-24T06:20:58.841Z,12.3
2018-04-24T06:21:58.151Z,12.3
2018-04-24T06:22:57.155Z,12.3
2018-04-24T06:23:56.570Z,12.3
2018-04-24T06:24:55.893Z,12.3
2018-04-24T06:25:54.998Z,12.3
2018-04-24T06:26:54.334Z,12.3
2018-04-24T06:27:53.332Z,12.4
2018-04-24T06:28:52.548Z,12.4
2018-04-24T06:29:51.862Z,12.4
2018-04-24T06:30:51.071Z,12.5
2018-04-24T06:32:49.058Z,12.5
2018-04-24T06:33:48.768Z,12.5
2018-04-24T06:34:47.478Z,12.6
2018-04-24T06:35:46.799Z,12.6
2018-04-24T06:36:46.117Z,12.7
2018-04-24T06:37:16.525Z,12.7
2018-04-24T06:37:47.048Z,12.7
2018-04-24T06:38:17.436Z,12.7
2018-04-24T06:39:43.539Z,12.8
2018-04-24T06:40:42.961Z,12.8
2018-04-24T06:41:42.304Z,12.9
2018-04-24T06:42:41.476Z,12.9
2018-04-24T06:43:40.296Z,12.9
2018-04-24T06:44:39.719Z,13
2018-04-24T06:45:39.062Z,13
2018-04-24T06:46:38.163Z,13
2018-04-24T06:47:37.595Z,13.1
2018-04-24T06:48:36.423Z,13.1
2018-04-24T06:49:35.632Z,13.2
2018-04-24T06:50:35.235Z,13.2
2018-04-24T06:51:33.939Z,13.3
2018-04-24T06:52:33.551Z,13.3
2018-04-24T06:53:32.659Z,13.4
2018-04-24T06:54:31.885Z,13.5
2018-04-24T06:55:31.100Z,13.6
2018-04-24T06:56:30.425Z,13.7
2018-04-24T06:57:29.140Z,13.8
2018-04-24T06:58:28.380Z,13.8
2018-04-24T06:59:27.703Z,13.8
2018-04-24T07:00:26.803Z,13.9
2018-04-24T07:01:26.504Z,14
2018-04-24T07:02:25.605Z,14
2018-04-24T07:03:24.415Z,14.1
2018-04-24T07:04:24.139Z,14.1
2018-04-24T07:05:23.354Z,14.2
2018-04-24T07:07:21.564Z,14.2
2018-04-24T07:08:20.778Z,14.3
2018-04-24T07:09:19.994Z,14.3
2018-04-24T07:10:19.209Z,14.3
2018-04-24T07:12:17.927Z,14.3
2018-04-24T07:13:17.145Z,14.3
2018-04-24T07:14:16.467Z,14.3
2018-04-24T07:15:15.681Z,14.4
2018-04-24T07:16:14.882Z,14.4
2018-04-24T07:17:13.592Z,14.5
2018-04-24T07:18:12.791Z,14.5
2018-04-24T07:19:12.518Z,14.5
2018-04-24T07:20:11.846Z,14.6
2018-04-24T07:21:10.562Z,14.6
2018-04-24T07:22:10.083Z,14.6
2018-04-24T07:23:09.220Z,14.7
2018-04-24T07:25:08.008Z,14.7
2018-04-24T07:26:06.930Z,14.7
2018-04-24T07:27:06.331Z,14.7
2018-04-24T07:28:05.652Z,14.8
2018-04-24T07:29:04.549Z,14.8
2018-04-24T07:30:03.868Z,14.8
2018-04-24T07:31:02.967Z,14.9
2018-04-24T07:32:02.188Z,14.9
2018-04-24T07:34:00.574Z,14.8
2018-04-24T07:34:59.792Z,14.8
2018-04-24T07:35:59.626Z,14.8
2018-04-24T07:36:58.330Z,14.8
2018-04-24T07:37:57.553Z,14.8
2018-04-24T07:38:56.764Z,14.8
2018-04-24T07:39:56.507Z,14.8
2018-04-24T07:40:55.221Z,14.8
2018-04-24T07:41:54.939Z,14.8
2018-04-24T07:42:53.871Z,14.8
2018-04-24T07:43:53.080Z,14.8
2018-04-24T07:44:52.390Z,14.9
2018-04-24T07:45:51.720Z,14.9
2018-04-24T07:46:51.350Z,14.9
2018-04-24T07:47:50.301Z,14.9
2018-04-24T07:48:49.511Z,14.9
2018-04-24T07:49:48.905Z,14.9
2018-04-24T07:50:48.215Z,15
2018-04-24T07:51:47.432Z,15
2018-04-24T07:52:46.251Z,15.1
2018-04-24T07:53:45.945Z,15.2
2018-04-24T07:54:45.045Z,15.2
2018-04-24T07:55:44.251Z,15.3
2018-04-24T07:56:43.465Z,15.4
2018-04-24T07:57:42.568Z,15.4
2018-04-24T07:58:41.905Z,15.5
2018-04-24T07:59:41.121Z,15.6
2018-04-24T08:00:40.444Z,15.6
2018-04-24T08:01:39.759Z,15.6
2018-04-24T08:02:39.182Z,15.6
2018-04-24T08:03:38.395Z,15.7
2018-04-24T08:04:37.720Z,15.6
2018-04-24T08:05:36.543Z,15.7
2018-04-24T08:06:36.257Z,15.6
2018-04-24T08:07:35.466Z,15.7
2018-04-24T08:08:34.686Z,15.7
2018-04-24T08:09:33.889Z,15.6
2018-04-24T08:10:33.098Z,15.6
2018-04-24T08:11:32.420Z,15.6
2018-04-24T08:12:31.736Z,15.6
2018-04-24T08:13:02.266Z,15.6
2018-04-24T08:13:32.805Z,15.6
2018-04-24T08:14:03.451Z,15.6
2018-04-24T08:14:33.982Z,15.6
2018-04-24T08:15:04.635Z,15.6
2018-04-24T08:15:35.158Z,15.6
2018-04-24T08:16:05.800Z,15.6
2018-04-24T08:17:28.050Z,15.6
2018-04-24T08:18:27.473Z,15.6
2018-04-24T08:19:26.294Z,15.6
2018-04-24T08:21:25.014Z,15.7
2018-04-24T08:22:24.113Z,15.7
2018-04-24T08:23:23.322Z,15.8
2018-04-24T08:24:22.651Z,15.8
2018-04-24T08:25:21.970Z,15.8
2018-04-24T08:26:21.287Z,15.9
2018-04-24T08:26:51.812Z,15.9
2018-04-24T08:28:19.820Z,16
2018-04-24T08:29:19.242Z,16
2018-04-24T08:30:18.674Z,16
2018-04-24T08:31:17.676Z,16.1
2018-04-24T08:32:16.895Z,16.1
2018-04-24T08:33:16.322Z,16.1
2018-04-24T08:34:15.530Z,16
2018-04-24T08:35:14.738Z,16.1
2018-04-24T08:36:14.001Z,16.1
2018-04-24T08:37:13.424Z,16.1
2018-04-24T08:38:12.424Z,16.1
2018-04-24T08:39:12.137Z,16.2
2018-04-24T08:40:11.494Z,16.2
2018-04-24T08:41:10.423Z,16.2
2018-04-24T08:42:09.633Z,16.2
2018-04-24T08:43:08.842Z,16.2
2018-04-24T08:44:08.552Z,16.2
2018-04-24T08:45:07.872Z,16.2
2018-04-24T08:46:06.582Z,16.2
2018-04-24T08:47:06.193Z,16.2
2018-04-24T08:48:05.412Z,16.2
2018-04-24T08:49:04.744Z,16.3
2018-04-24T08:50:04.076Z,16.2
2018-04-24T08:51:03.397Z,16.2
2018-04-24T08:52:02.522Z,16.2
2018-04-24T08:53:01.524Z,16.2
2018-04-24T08:54:01.025Z,16.3
2018-04-24T08:55:00.134Z,16.3
2018-04-24T08:55:59.464Z,16.2
2018-04-24T08:56:30.164Z,16.2
2018-04-24T08:57:58.110Z,16.3
2018-04-24T08:59:56.915Z,16.3
2018-04-24T09:00:56.240Z,16.3
2018-04-24T09:01:55.644Z,16.3
2018-04-24T09:02:54.508Z,16.4
2018-04-24T09:03:53.947Z,16.3
2018-04-24T09:04:53.380Z,16.3
2018-04-24T09:05:52.481Z,16.4
2018-04-24T09:06:51.693Z,16.4
2018-04-24T09:07:50.900Z,16.5
2018-04-24T09:08:50.213Z,16.6
2018-04-24T09:09:49.417Z,16.6
2018-04-24T09:10:49.241Z,16.5
2018-04-24T09:11:48.231Z,16.5
2018-04-24T09:12:47.532Z,16.5
2018-04-24T09:13:46.957Z,16.6
2018-04-24T09:14:46.165Z,16.7
2018-04-24T09:15:45.486Z,16.8
2018-04-24T09:17:44.094Z,16.6
2018-04-24T09:18:43.090Z,16.6
2018-04-24T09:19:42.393Z,16.7
2018-04-24T09:20:41.603Z,16.7
2018-04-24T09:21:41.312Z,16.8
2018-04-24T09:22:40.413Z,16.8
2018-04-24T09:23:39.503Z,16.7
2018-04-24T09:24:38.824Z,16.8
2018-04-24T09:25:38.614Z,16.8
2018-04-24T09:26:37.719Z,16.7
2018-04-24T09:27:36.926Z,16.6
2018-04-24T09:28:36.252Z,16.6
2018-04-24T09:29:35.583Z,16.5
2018-04-24T09:30:34.681Z,16.6
2018-04-24T09:31:34.285Z,16.6
2018-04-24T09:32:33.601Z,16.6
2018-04-24T09:33:33.366Z,16.7
2018-04-24T09:34:31.888Z,16.8
2018-04-24T09:35:31.222Z,16.8
2018-04-24T09:36:30.544Z,16.8
2018-04-24T09:37:29.968Z,16.9
2018-04-24T09:38:29.178Z,17.1
2018-04-24T09:39:28.394Z,17.1
2018-04-24T09:40:27.625Z,17.2
2018-04-24T09:41:27.349Z,17.2
2018-04-24T09:42:26.668Z,17.1
2018-04-24T09:43:25.487Z,17
2018-04-24T09:44:24.811Z,16.9
2018-04-24T09:45:24.569Z,16.9
2018-04-24T09:46:23.786Z,16.9
2018-04-24T09:47:23.004Z,17
2018-04-24T09:48:22.208Z,17
2018-04-24T09:49:21.567Z,17.1
2018-04-24T09:50:20.484Z,17.1
2018-04-24T09:51:20.203Z,17.1
2018-04-24T09:51:50.458Z,17.1
2018-04-24T09:52:21.096Z,17.2
2018-04-24T09:52:51.616Z,17.2
2018-04-24T09:53:21.751Z,17.2
2018-04-24T09:54:18.098Z,17.3
2018-04-24T09:55:17.533Z,17.3
2018-04-24T09:56:16.639Z,17.4
2018-04-24T09:57:15.849Z,17.4
2018-04-24T09:58:15.253Z,17.4
2018-04-24T09:59:14.350Z,17.4
2018-04-24T10:00:14.102Z,17.5
2018-04-24T10:01:12.922Z,17.5
2018-04-24T10:02:12.447Z,17.5
2018-04-24T10:03:11.919Z,17.6
2018-04-24T10:04:11.233Z,17.6
2018-04-24T10:05:10.445Z,17.7
2018-04-24T10:06:09.761Z,17.8
2018-04-24T10:07:09.185Z,17.8
2018-04-24T10:08:08.113Z,17.8
2018-04-24T10:09:07.433Z,17.7
2018-04-24T10:10:06.656Z,17.7
2018-04-24T10:11:05.993Z,17.5
2018-04-24T10:12:05.432Z,17.5
2018-04-24T10:13:04.879Z,17.5
2018-04-24T10:14:04.339Z,17.6
2018-04-24T10:15:03.158Z,17.5
2018-04-24T10:16:02.776Z,17.5
2018-04-24T10:17:01.890Z,17.5
2018-04-24T10:18:01.468Z,17.7
2018-04-24T10:19:00.583Z,17.8
2018-04-24T10:19:59.792Z,17.7
2018-04-24T10:20:59.233Z,17.7
2018-04-24T10:21:58.545Z,17.7
2018-04-24T10:22:57.856Z,17.7
2018-04-24T10:23:57.166Z,17.8
2018-04-24T10:24:56.592Z,17.9
2018-04-24T10:25:55.803Z,17.8
2018-04-24T10:26:55.016Z,17.8
2018-04-24T10:27:54.327Z,17.9
2018-04-24T10:28:53.929Z,17.8
2018-04-24T10:29:53.156Z,17.8
2018-04-24T10:30:52.260Z,17.9
2018-04-24T10:31:51.976Z,17.8
2018-04-24T10:32:51.195Z,17.9
2018-04-24T10:33:50.509Z,17.9
2018-04-24T10:34:49.838Z,17.9
2018-04-24T10:35:49.163Z,18
2018-04-24T10:36:48.381Z,18
2018-04-24T10:37:47.585Z,17.9
2018-04-24T10:39:46.291Z,17.9
2018-04-24T10:40:45.899Z,17.8
2018-04-24T10:41:45.220Z,17.9
2018-04-24T10:42:44.432Z,17.9
2018-04-24T10:43:43.887Z,18
2018-04-24T10:44:42.839Z,18.1
2018-04-24T10:45:42.445Z,18.1
2018-04-24T10:46:41.759Z,18.2
2018-04-24T10:47:40.862Z,18.2
2018-04-24T10:48:40.294Z,18.3
2018-04-24T10:49:39.658Z,18.3
2018-04-24T10:50:38.982Z,18.3
2018-04-24T10:51:38.274Z,18.3
2018-04-24T10:52:37.761Z,18.4
2018-04-24T10:53:37.195Z,18.3
2018-04-24T10:54:36.416Z,18.2
2018-04-24T10:55:35.412Z,18.1
2018-04-24T10:56:34.729Z,18.1
2018-04-24T10:57:34.343Z,18.1
2018-04-24T10:58:33.548Z,18
2018-04-24T10:59:33.037Z,17.9
2018-04-24T11:00:32.573Z,18
2018-04-24T11:01:31.401Z,18.1
2018-04-24T11:02:30.854Z,18.1
2018-04-24T11:03:30.274Z,18.1
2018-04-24T11:04:29.481Z,18.1
2018-04-24T11:05:28.904Z,18.1
2018-04-24T11:08:26.886Z,18.1
2018-04-24T11:09:26.095Z,18.1
2018-04-24T11:10:25.699Z,18
2018-04-24T11:11:25.030Z,17.8
2018-04-24T11:12:24.295Z,17.8
2018-04-24T11:13:23.612Z,17.8
2018-04-24T11:14:22.920Z,17.8
2018-04-24T11:15:22.306Z,17.8
2018-04-24T11:16:21.624Z,17.8
2018-04-24T11:17:21.053Z,17.8
2018-04-24T11:18:20.368Z,17.8
2018-04-24T11:19:19.579Z,17.8
2018-04-24T11:20:19.010Z,17.8
2018-04-24T11:21:18.482Z,17.9
2018-04-24T11:22:17.601Z,17.8
2018-04-24T11:23:16.922Z,17.8
2018-04-24T11:24:16.136Z,17.8
2018-04-24T11:25:15.352Z,17.8
2018-04-24T11:26:15.043Z,17.7
2018-04-24T11:27:14.359Z,17.6
2018-04-24T11:28:13.676Z,17.6
2018-04-24T11:29:12.909Z,17.6
2018-04-24T11:30:12.574Z,17.6
2018-04-24T11:32:10.812Z,17.5
2018-04-24T11:33:10.522Z,17.5
2018-04-24T11:34:09.801Z,17.5
2018-04-24T11:35:09.135Z,17.5
2018-04-24T11:36:08.350Z,17.4
2018-04-24T11:37:07.781Z,17.4
2018-04-24T11:38:07.095Z,17.4
2018-04-24T11:39:06.412Z,17.5
2018-04-24T11:40:05.510Z,17.5
2018-04-24T11:41:05.112Z,17.5
2018-04-24T11:42:04.217Z,17.5
2018-04-24T11:43:03.448Z,17.4
2018-04-24T11:44:03.124Z,17.4
2018-04-24T11:45:01.999Z,17.4
2018-04-24T11:46:01.623Z,17.4
2018-04-24T11:47:01.058Z,17.3
2018-04-24T11:48:00.389Z,17.3
2018-04-24T11:48:59.593Z,17.3
2018-04-24T11:49:59.165Z,17.3
2018-04-24T11:50:58.159Z,17.4
2018-04-24T11:51:57.870Z,17.3
2018-04-24T11:53:56.113Z,17.2
2018-04-24T11:54:55.491Z,17.2
2018-04-24T11:55:54.697Z,17.2
2018-04-24T11:56:54.122Z,17.2
2018-04-24T11:57:53.550Z,17.2
2018-04-24T11:58:52.761Z,17.2
2018-04-24T12:00:51.357Z,17.3
2018-04-24T12:01:51.091Z,17.2
2018-04-24T12:02:50.635Z,17.2
2018-04-24T12:05:48.192Z,17.2
2018-04-24T12:06:47.416Z,17.3
2018-04-24T12:07:46.732Z,17.3
2018-04-24T12:08:45.949Z,17.2
2018-04-24T12:09:45.369Z,17.2
2018-04-24T12:10:44.975Z,17.2
2018-04-24T12:11:44.410Z,17.2
2018-04-24T12:12:43.325Z,17.2
2018-04-24T12:13:42.826Z,17.1
2018-04-24T12:14:41.938Z,17.1
2018-04-24T12:15:41.577Z,17.1
2018-04-24T12:16:40.805Z,17.1
2018-04-24T12:17:40.222Z,17.1
2018-04-24T12:18:39.439Z,17
2018-04-24T12:19:38.752Z,17
2018-04-24T12:20:37.964Z,17
2018-04-24T12:21:37.346Z,17
2018-04-24T12:22:36.561Z,17
2018-04-24T12:23:35.886Z,16.9
2018-04-24T12:24:35.314Z,16.9
2018-04-24T12:26:34.017Z,16.9
2018-04-24T12:27:04.319Z,16.9
2018-04-24T12:28:32.827Z,16.9
2018-04-24T12:29:32.141Z,16.9
2018-04-24T12:30:31.450Z,16.9
2018-04-24T12:31:30.720Z,16.9
2018-04-24T12:32:30.054Z,16.9
2018-04-24T12:33:29.368Z,16.9
2018-04-24T12:34:28.584Z,16.9
2018-04-24T12:35:27.588Z,16.9
2018-04-24T12:37:26.583Z,16.9
2018-04-24T12:39:25.380Z,16.9
2018-04-24T12:40:24.522Z,16.8
2018-04-24T12:41:23.950Z,16.8
2018-04-24T12:43:22.442Z,16.9
2018-04-24T12:44:21.652Z,16.8
2018-04-24T12:45:21.082Z,16.8
2018-04-24T12:46:20.404Z,16.8
2018-04-24T12:47:19.840Z,16.8
2018-04-24T12:48:19.051Z,16.8
2018-04-24T12:49:18.166Z,16.8
2018-04-24T12:50:17.600Z,16.8
2018-04-24T12:51:16.911Z,16.8
2018-04-24T12:52:16.347Z,16.8
2018-04-24T12:53:15.774Z,16.8
2018-04-24T12:54:15.208Z,16.8
2018-04-24T12:55:13.915Z,16.8
2018-04-24T12:56:13.702Z,16.8
2018-04-24T12:57:12.822Z,16.7
2018-04-24T12:58:12.147Z,16.7
2018-04-24T12:59:11.927Z,16.7
2018-04-24T13:00:11.057Z,16.7
2018-04-24T13:01:10.336Z,16.7
2018-04-24T13:02:09.263Z,16.7
2018-04-24T13:03:08.986Z,16.7
2018-04-24T13:04:08.298Z,16.6
2018-04-24T13:05:07.397Z,16.6
2018-04-24T13:06:06.615Z,16.6
2018-04-24T13:07:05.843Z,16.6
2018-04-24T13:08:05.169Z,16.7
2018-04-24T13:09:04.443Z,16.7
2018-04-24T13:10:03.646Z,16.7
2018-04-24T13:11:03.079Z,16.7
2018-04-24T13:12:02.411Z,16.7
2018-04-24T13:13:01.641Z,16.7
2018-04-24T13:14:01.353Z,16.7
2018-04-24T13:15:00.466Z,16.8
2018-04-24T13:15:59.792Z,16.8
2018-04-24T13:16:59.113Z,16.7
2018-04-24T13:17:58.317Z,16.7
2018-04-24T13:18:57.634Z,16.7
2018-04-24T13:19:57.054Z,16.6
2018-04-24T13:20:56.376Z,16.6
2018-04-24T13:21:55.695Z,16.5
2018-04-24T13:22:26.217Z,16.5
2018-04-24T13:22:56.847Z,16.5
2018-04-24T13:23:54.254Z,16.3
2018-04-24T13:24:53.463Z,16.3
2018-04-24T13:25:53.115Z,16.3
2018-04-24T13:26:52.036Z,16.3
2018-04-24T13:27:51.139Z,16.3
2018-04-24T13:28:50.864Z,16.3
2018-04-24T13:29:50.288Z,16.2
2018-04-24T13:30:49.506Z,16.2
2018-04-24T13:31:48.755Z,16.2
2018-04-24T13:32:48.072Z,16.2
2018-04-24T13:34:46.777Z,16.1
2018-04-24T13:35:45.998Z,16.1